Mc Shan, Alabama
Current Conditions -  °F | °C
As of 6:18 AM on Monday 26 Jan 2015 (Local Time) from KCBM Reporting Station
Overcast Overcast  
Wind Chill: 32°   Ceiling: 2400
Heat Index: 41°   Visibility: 10mi
Dew Point: 32°   Wind: 18mph
Humidity: 70%   Direction: 330°NNW
Pressure: 30.01"   Gusts: NA
Location:  33.3788°N, 88.1443°W
Report Text: KCBM 261218Z AUTO 33016KT 10SM OVC024 05/00 A3001 RMK AO2 $
Loading
Personal Weather Stations






























Interactive Weather Map New forecast layout! Learn more

10-Day Weather Forecast

Advertisements
Track Severe Weather on mobile